sensor_id;sensor_type;location;lat;lon;timestamp;pressure;altitude;pressure_sealevel;temperature;humidity
17054;BME280;8643;48.824;11.422;2022-12-16T00:01:11;95502.00;;;-2.95;100.00
17054;BME280;8643;48.824;11.422;2022-12-16T00:03:46;95494.78;;;-2.95;100.00
17054;BME280;8643;48.824;11.422;2022-12-16T00:06:15;95498.81;;;-2.97;100.00
17054;BME280;8643;48.824;11.422;2022-12-16T00:08:44;95501.50;;;-2.97;100.00
17054;BME280;8643;48.824;11.422;2022-12-16T00:11:13;95496.09;;;-2.92;100.00
17054;BME280;8643;48.824;11.422;2022-12-16T00:13:42;95494.97;;;-2.86;100.00
17054;BME280;8643;48.824;11.422;2022-12-16T00:16:15;95500.09;;;-2.89;100.00
17054;BME280;8643;48.824;11.422;2022-12-16T00:18:44;95501.16;;;-2.90;100.00
17054;BME280;8643;48.824;11.422;2022-12-16T00:21:13;95494.50;;;-2.93;100.00
17054;BME280;8643;48.824;11.422;2022-12-16T00:23:44;95495.00;;;-2.91;100.00
17054;BME280;8643;48.824;11.422;2022-12-16T00:26:13;95499.53;;;-2.86;100.00
17054;BME280;8643;48.824;11.422;2022-12-16T00:28:42;95497.19;;;-2.93;100.00
17054;BME280;8643;48.824;11.422;2022-12-16T00:31:12;95502.50;;;-2.88;100.00
17054;BME280;8643;48.824;11.422;2022-12-16T00:33:41;95510.03;;;-2.95;100.00
17054;BME280;8643;48.824;11.422;2022-12-16T00:36:09;95504.66;;;-2.90;100.00
17054;BME280;8643;48.824;11.422;2022-12-16T00:38:38;95513.78;;;-2.91;100.00
17054;BME280;8643;48.824;11.422;2022-12-16T00:41:06;95508.69;;;-2.92;100.00
17054;BME280;8643;48.824;11.422;2022-12-16T00:43:36;95503.88;;;-2.96;100.00
17054;BME280;8643;48.824;11.422;2022-12-16T00:46:05;95512.97;;;-2.91;100.00
17054;BME280;8643;48.824;11.422;2022-12-16T00:48:35;95510.03;;;-2.90;100.00
17054;BME280;8643;48.824;11.422;2022-12-16T00:51:03;95503.63;;;-2.94;100.00
17054;BME280;8643;48.824;11.422;2022-12-16T00:53:32;95502.00;;;-2.95;100.00
17054;BME280;8643;48.824;11.422;2022-12-16T00:56:04;95512.25;;;-3.02;100.00
17054;BME280;8643;48.824;11.422;2022-12-16T00:58:33;95507.97;;;-3.03;100.00
17054;BME280;8643;48.824;11.422;2022-12-16T01:01:03;95507.22;;;-3.09;100.00
17054;BME280;8643;48.824;11.422;2022-12-16T01:03:34;95512.81;;;-3.05;100.00
17054;BME280;8643;48.824;11.422;2022-12-16T01:06:08;95516.25;;;-3.00;100.00
17054;BME280;8643;48.824;11.422;2022-12-16T01:08:37;95519.44;;;-2.98;100.00
17054;BME280;8643;48.824;11.422;2022-12-16T01:11:05;95533.63;;;-2.97;100.00
17054;BME280;8643;48.824;11.422;2022-12-16T01:13:34;95529.38;;;-2.98;100.00
17054;BME280;8643;48.824;11.422;2022-12-16T01:16:04;95525.81;;;-2.88;100.00
17054;BME280;8643;48.824;11.422;2022-12-16T01:18:34;95523.13;;;-2.88;100.00
17054;BME280;8643;48.824;11.422;2022-12-16T01:21:04;95517.44;;;-2.82;100.00
17054;BME280;8643;48.824;11.422;2022-12-16T01:23:34;95515.66;;;-2.91;100.00
17054;BME280;8643;48.824;11.422;2022-12-16T01:26:03;95515.94;;;-2.93;100.00
17054;BME280;8643;48.824;11.422;2022-12-16T01:28:32;95526.09;;;-2.95;100.00
17054;BME280;8643;48.824;11.422;2022-12-16T01:31:01;95517.50;;;-2.92;100.00
17054;BME280;8643;48.824;11.422;2022-12-16T01:33:31;95522.81;;;-2.87;100.00
17054;BME280;8643;48.824;11.422;2022-12-16T01:36:06;95531.72;;;-2.91;100.00
17054;BME280;8643;48.824;11.422;2022-12-16T01:38:35;95529.00;;;-2.86;100.00
17054;BME280;8643;48.824;11.422;2022-12-16T01:41:04;95523.94;;;-2.88;100.00
17054;BME280;8643;48.824;11.422;2022-12-16T01:43:36;95520.41;;;-2.83;100.00
17054;BME280;8643;48.824;11.422;2022-12-16T01:46:12;95514.28;;;-2.89;100.00
17054;BME280;8643;48.824;11.422;2022-12-16T01:48:46;95507.47;;;-2.76;100.00
17054;BME280;8643;48.824;11.422;2022-12-16T01:51:23;95514.22;;;-2.79;100.00
17054;BME280;8643;48.824;11.422;2022-12-16T01:54:01;95518.00;;;-2.85;100.00
17054;BME280;8643;48.824;11.422;2022-12-16T01:56:33;95514.78;;;-2.87;100.00
17054;BME280;8643;48.824;11.422;2022-12-16T01:59:04;95516.16;;;-2.89;100.00
17054;BME280;8643;48.824;11.422;2022-12-16T02:01:34;95516.91;;;-2.84;100.00
17054;BME280;8643;48.824;11.422;2022-12-16T02:04:03;95511.84;;;-2.85;100.00
17054;BME280;8643;48.824;11.422;2022-12-16T02:06:33;95515.09;;;-2.88;100.00
17054;BME280;8643;48.824;11.422;2022-12-16T02:09:07;95524.72;;;-2.87;100.00
17054;BME280;8643;48.824;11.422;2022-12-16T02:11:59;95523.56;;;-2.76;100.00
17054;BME280;8643;48.824;11.422;2022-12-16T02:15:00;95531.88;;;-2.78;100.00
17054;BME280;8643;48.824;11.422;2022-12-16T02:17:42;95541.75;;;-2.73;100.00
17054;BME280;8643;48.824;11.422;2022-12-16T02:20:39;95543.38;;;-2.72;100.00
17054;BME280;8643;48.824;11.422;2022-12-16T02:23:41;95559.72;;;-2.73;100.00
17054;BME280;8643;48.824;11.422;2022-12-16T02:27:08;95560.75;;;-2.69;100.00
17054;BME280;8643;48.824;11.422;2022-12-16T02:30:05;95566.94;;;-2.74;100.00
17054;BME280;8643;48.824;11.422;2022-12-16T02:32:51;95583.88;;;-2.79;100.00
17054;BME280;8643;48.824;11.422;2022-12-16T02:35:32;95595.38;;;-2.78;100.00
17054;BME280;8643;48.824;11.422;2022-12-16T02:38:16;95598.28;;;-2.74;100.00
17054;BME280;8643;48.824;11.422;2022-12-16T02:40:56;95600.97;;;-2.74;100.00
17054;BME280;8643;48.824;11.422;2022-12-16T02:43:52;95599.91;;;-2.73;100.00
17054;BME280;8643;48.824;11.422;2022-12-16T02:46:26;95584.38;;;-2.77;100.00
17054;BME280;8643;48.824;11.422;2022-12-16T02:49:05;95575.25;;;-2.76;100.00
17054;BME280;8643;48.824;11.422;2022-12-16T02:51:37;95582.50;;;-2.76;100.00
17054;BME280;8643;48.824;11.422;2022-12-16T02:54:07;95566.41;;;-2.76;100.00
17054;BME280;8643;48.824;11.422;2022-12-16T02:56:55;95568.53;;;-2.73;100.00
17054;BME280;8643;48.824;11.422;2022-12-16T02:59:38;95556.22;;;-2.74;100.00
17054;BME280;8643;48.824;11.422;2022-12-16T03:02:17;95559.16;;;-2.76;100.00
17054;BME280;8643;48.824;11.422;2022-12-16T03:04:54;95560.84;;;-2.80;100.00
17054;BME280;8643;48.824;11.422;2022-12-16T03:07:30;95558.97;;;-2.84;100.00
17054;BME280;8643;48.824;11.422;2022-12-16T03:10:03;95553.41;;;-2.88;100.00
17054;BME280;8643;48.824;11.422;2022-12-16T03:12:36;95566.75;;;-2.83;100.00
17054;BME280;8643;48.824;11.422;2022-12-16T03:15:10;95565.13;;;-2.84;100.00
17054;BME280;8643;48.824;11.422;2022-12-16T03:17:40;95581.22;;;-2.84;100.00
17054;BME280;8643;48.824;11.422;2022-12-16T03:20:17;95582.25;;;-2.80;100.00
17054;BME280;8643;48.824;11.422;2022-12-16T03:22:49;95581.75;;;-2.82;100.00
17054;BME280;8643;48.824;11.422;2022-12-16T03:25:22;95577.94;;;-2.76;100.00
17054;BME280;8643;48.824;11.422;2022-12-16T03:27:59;95589.25;;;-2.84;100.00
17054;BME280;8643;48.824;11.422;2022-12-16T03:30:35;95594.03;;;-2.81;100.00
17054;BME280;8643;48.824;11.422;2022-12-16T03:33:15;95594.88;;;-2.80;100.00
17054;BME280;8643;48.824;11.422;2022-12-16T03:35:50;95594.81;;;-2.75;100.00
17054;BME280;8643;48.824;11.422;2022-12-16T03:38:22;95598.06;;;-2.78;100.00
17054;BME280;8643;48.824;11.422;2022-12-16T03:40:54;95598.84;;;-2.78;100.00
17054;BME280;8643;48.824;11.422;2022-12-16T03:43:23;95604.50;;;-2.79;100.00
17054;BME280;8643;48.824;11.422;2022-12-16T03:45:56;95610.66;;;-2.79;100.00
17054;BME280;8643;48.824;11.422;2022-12-16T03:48:28;95611.47;;;-2.78;100.00
17054;BME280;8643;48.824;11.422;2022-12-16T03:50:58;95611.22;;;-2.82;100.00
17054;BME280;8643;48.824;11.422;2022-12-16T03:53:27;95609.66;;;-2.88;100.00
17054;BME280;8643;48.824;11.422;2022-12-16T03:55:56;95605.31;;;-2.84;100.00
17054;BME280;8643;48.824;11.422;2022-12-16T03:58:25;95603.41;;;-2.78;100.00
17054;BME280;8643;48.824;11.422;2022-12-16T04:00:53;95616.53;;;-2.77;100.00
17054;BME280;8643;48.824;11.422;2022-12-16T04:03:22;95615.16;;;-2.74;100.00
17054;BME280;8643;48.824;11.422;2022-12-16T04:05:52;95617.56;;;-2.72;100.00
17054;BME280;8643;48.824;11.422;2022-12-16T04:08:22;95618.44;;;-2.82;100.00
17054;BME280;8643;48.824;11.422;2022-12-16T04:10:50;95623.56;;;-2.86;100.00
17054;BME280;8643;48.824;11.422;2022-12-16T04:13:37;95621.94;;;-2.82;100.00
17054;BME280;8643;48.824;11.422;2022-12-16T04:16:26;95633.16;;;-2.80;100.00
17054;BME280;8643;48.824;11.422;2022-12-16T04:19:21;95630.53;;;-2.85;100.00
17054;BME280;8643;48.824;11.422;2022-12-16T04:22:13;95630.53;;;-2.85;100.00
17054;BME280;8643;48.824;11.422;2022-12-16T04:25:07;95632.09;;;-2.79;100.00
17054;BME280;8643;48.824;11.422;2022-12-16T04:27:37;95638.03;;;-2.87;100.00
17054;BME280;8643;48.824;11.422;2022-12-16T04:30:07;95643.97;;;-2.90;100.00
17054;BME280;8643;48.824;11.422;2022-12-16T04:32:52;95640.69;;;-2.87;100.00
17054;BME280;8643;48.824;11.422;2022-12-16T04:35:40;95636.75;;;-2.95;100.00
17054;BME280;8643;48.824;11.422;2022-12-16T04:38:26;95633.53;;;-2.97;100.00
17054;BME280;8643;48.824;11.422;2022-12-16T04:41:13;95636.19;;;-2.97;100.00
17054;BME280;8643;48.824;11.422;2022-12-16T04:43:59;95631.41;;;-2.95;100.00
17054;BME280;8643;48.824;11.422;2022-12-16T04:46:46;95631.44;;;-3.00;100.00
17054;BME280;8643;48.824;11.422;2022-12-16T04:49:32;95644.53;;;-2.98;100.00
17054;BME280;8643;48.824;11.422;2022-12-16T04:52:18;95641.31;;;-3.00;100.00
17054;BME280;8643;48.824;11.422;2022-12-16T04:55:06;95640.53;;;-3.01;100.00
17054;BME280;8643;48.824;11.422;2022-12-16T04:57:55;95640.00;;;-3.03;100.00
17054;BME280;8643;48.824;11.422;2022-12-16T05:00:43;95650.97;;;-2.99;100.00
17054;BME280;8643;48.824;11.422;2022-12-16T05:03:29;95650.44;;;-3.01;100.00
17054;BME280;8643;48.824;11.422;2022-12-16T05:06:15;95663.78;;;-2.91;100.00
17054;BME280;8643;48.824;11.422;2022-12-16T05:09:02;95666.47;;;-2.91;100.00
17054;BME280;8643;48.824;11.422;2022-12-16T05:11:49;95677.72;;;-2.94;100.00
17054;BME280;8643;48.824;11.422;2022-12-16T05:14:36;95681.78;;;-3.02;100.00
17054;BME280;8643;48.824;11.422;2022-12-16T05:17:22;95685.53;;;-3.03;100.00
17054;BME280;8643;48.824;11.422;2022-12-16T05:20:09;95688.50;;;-3.04;100.00
17054;BME280;8643;48.824;11.422;2022-12-16T05:22:56;95692.25;;;-3.05;100.00
17054;BME280;8643;48.824;11.422;2022-12-16T05:25:42;95698.94;;;-3.03;100.00
17054;BME280;8643;48.824;11.422;2022-12-16T05:28:28;95703.47;;;-2.98;100.00
17054;BME280;8643;48.824;11.422;2022-12-16T05:31:16;95708.31;;;-3.05;100.00
17054;BME280;8643;48.824;11.422;2022-12-16T05:34:02;95712.06;;;-3.01;100.00
17054;BME280;8643;48.824;11.422;2022-12-16T05:36:48;95715.00;;;-3.03;100.00
17054;BME280;8643;48.824;11.422;2022-12-16T05:39:34;95717.97;;;-3.04;100.00
17054;BME280;8643;48.824;11.422;2022-12-16T05:42:20;95723.84;;;-3.02;100.00
17054;BME280;8643;48.824;11.422;2022-12-16T05:45:07;95727.00;;;-2.95;100.00
17054;BME280;8643;48.824;11.422;2022-12-16T05:47:54;95724.59;;;-2.91;100.00
17054;BME280;8643;48.824;11.422;2022-12-16T05:50:39;95724.06;;;-2.93;100.00
17054;BME280;8643;48.824;11.422;2022-12-16T05:53:25;95740.38;;;-2.85;100.00
17054;BME280;8643;48.824;11.422;2022-12-16T05:56:11;95733.91;;;-2.84;100.00
17054;BME280;8643;48.824;11.422;2022-12-16T05:58:58;95739.31;;;-2.89;100.00
17054;BME280;8643;48.824;11.422;2022-12-16T06:01:44;95737.44;;;-2.93;100.00
17054;BME280;8643;48.824;11.422;2022-12-16T06:04:32;95738.00;;;-2.91;100.00
17054;BME280;8643;48.824;11.422;2022-12-16T06:07:17;95747.09;;;-2.92;100.00
17054;BME280;8643;48.824;11.422;2022-12-16T06:10:04;95742.81;;;-2.99;100.00
17054;BME280;8643;48.824;11.422;2022-12-16T06:12:50;95743.91;;;-2.95;100.00
17054;BME280;8643;48.824;11.422;2022-12-16T06:15:36;95754.88;;;-2.96;100.00
17054;BME280;8643;48.824;11.422;2022-12-16T06:18:22;95758.41;;;-3.06;100.00
17054;BME280;8643;48.824;11.422;2022-12-16T06:21:18;95759.22;;;-3.10;100.00
17054;BME280;8643;48.824;11.422;2022-12-16T06:24:18;95746.03;;;-2.97;100.00
17054;BME280;8643;48.824;11.422;2022-12-16T06:27:04;95753.59;;;-3.09;100.00
17054;BME280;8643;48.824;11.422;2022-12-16T06:29:49;95759.00;;;-3.19;100.00
17054;BME280;8643;48.824;11.422;2022-12-16T06:32:37;95753.63;;;-3.19;100.00
17054;BME280;8643;48.824;11.422;2022-12-16T06:35:23;95763.25;;;-3.18;100.00
17054;BME280;8643;48.824;11.422;2022-12-16T06:38:22;95751.47;;;-3.17;100.00
17054;BME280;8643;48.824;11.422;2022-12-16T06:41:08;95761.91;;;-3.16;100.00
17054;BME280;8643;48.824;11.422;2022-12-16T06:44:02;95771.31;;;-3.23;100.00
17054;BME280;8643;48.824;11.422;2022-12-16T06:46:49;95774.53;;;-3.26;100.00
17054;BME280;8643;48.824;11.422;2022-12-16T06:49:35;95783.91;;;-3.29;100.00
17054;BME280;8643;48.824;11.422;2022-12-16T06:52:21;95785.22;;;-3.26;100.00
17054;BME280;8643;48.824;11.422;2022-12-16T06:55:08;95795.16;;;-3.27;100.00
17054;BME280;8643;48.824;11.422;2022-12-16T06:57:56;95799.13;;;-3.09;100.00
17054;BME280;8643;48.824;11.422;2022-12-16T07:00:43;95813.31;;;-3.14;100.00
17054;BME280;8643;48.824;11.422;2022-12-16T07:03:30;95826.97;;;-3.10;100.00
17054;BME280;8643;48.824;11.422;2022-12-16T07:06:16;95834.72;;;-3.03;100.00
17054;BME280;8643;48.824;11.422;2022-12-16T07:09:02;95846.78;;;-3.06;100.00
17054;BME280;8643;48.824;11.422;2022-12-16T07:11:50;95852.91;;;-3.00;100.00
17054;BME280;8643;48.824;11.422;2022-12-16T07:14:35;95855.59;;;-3.00;100.00
17054;BME280;8643;48.824;11.422;2022-12-16T07:17:27;95863.66;;;-3.10;100.00
17054;BME280;8643;48.824;11.422;2022-12-16T07:20:13;95869.28;;;-3.12;100.00
17054;BME280;8643;48.824;11.422;2022-12-16T07:22:59;95871.41;;;-3.04;100.00
17054;BME280;8643;48.824;11.422;2022-12-16T07:26:04;95881.31;;;-2.99;100.00
17054;BME280;8643;48.824;11.422;2022-12-16T07:28:51;95889.09;;;-3.03;100.00
17054;BME280;8643;48.824;11.422;2022-12-16T07:31:40;95888.28;;;-3.03;100.00
17054;BME280;8643;48.824;11.422;2022-12-16T07:34:26;95896.06;;;-3.07;100.00
17054;BME280;8643;48.824;11.422;2022-12-16T07:37:16;95902.22;;;-3.06;100.00
17054;BME280;8643;48.824;11.422;2022-12-16T07:40:03;95908.09;;;-2.99;100.00
17054;BME280;8643;48.824;11.422;2022-12-16T07:42:49;95907.03;;;-2.93;100.00
17054;BME280;8643;48.824;11.422;2022-12-16T07:45:36;95908.88;;;-2.93;100.00
17054;BME280;8643;48.824;11.422;2022-12-16T07:48:23;95908.88;;;-2.93;100.00
17054;BME280;8643;48.824;11.422;2022-12-16T07:51:09;95916.94;;;-2.99;100.00
17054;BME280;8643;48.824;11.422;2022-12-16T07:53:57;95918.81;;;-2.94;100.00
17054;BME280;8643;48.824;11.422;2022-12-16T07:56:43;95914.78;;;-2.86;100.00
17054;BME280;8643;48.824;11.422;2022-12-16T07:59:29;95929.78;;;-2.80;100.00
17054;BME280;8643;48.824;11.422;2022-12-16T08:02:16;95933.28;;;-2.90;100.00
17054;BME280;8643;48.824;11.422;2022-12-16T08:05:03;95936.75;;;-2.89;100.00
17054;BME280;8643;48.824;11.422;2022-12-16T08:07:49;95945.06;;;-2.86;100.00
17054;BME280;8643;48.824;11.422;2022-12-16T08:10:35;95941.31;;;-2.85;100.00
17054;BME280;8643;48.824;11.422;2022-12-16T08:13:21;95938.63;;;-2.85;100.00
17054;BME280;8643;48.824;11.422;2022-12-16T08:16:07;95947.16;;;-2.67;100.00
17054;BME280;8643;48.824;11.422;2022-12-16T08:18:54;95956.56;;;-2.70;100.00
17054;BME280;8643;48.824;11.422;2022-12-16T08:21:40;95959.75;;;-2.63;100.00
17054;BME280;8643;48.824;11.422;2022-12-16T08:24:26;95967.50;;;-2.61;100.00
17054;BME280;8643;48.824;11.422;2022-12-16T08:27:19;95964.78;;;-2.41;100.00
17054;BME280;8643;48.824;11.422;2022-12-16T08:30:06;95970.91;;;-2.19;100.00
17054;BME280;8643;48.824;11.422;2022-12-16T08:32:52;95963.66;;;-2.24;100.00
17054;BME280;8643;48.824;11.422;2022-12-16T08:35:47;95963.66;;;-2.24;100.00
17054;BME280;8643;48.824;11.422;2022-12-16T08:38:33;95968.69;;;-2.07;100.00
17054;BME280;8643;48.824;11.422;2022-12-16T08:41:22;95971.13;;;-2.11;100.00
17054;BME280;8643;48.824;11.422;2022-12-16T08:44:08;95969.81;;;-2.13;100.00
17054;BME280;8643;48.824;11.422;2022-12-16T08:46:54;95972.16;;;-2.01;100.00
17054;BME280;8643;48.824;11.422;2022-12-16T08:49:41;95972.13;;;-1.91;100.00
17054;BME280;8643;48.824;11.422;2022-12-16T08:52:30;95980.69;;;-1.84;100.00
17054;BME280;8643;48.824;11.422;2022-12-16T08:55:16;95985.75;;;-1.77;100.00
17054;BME280;8643;48.824;11.422;2022-12-16T08:58:02;95973.03;;;-1.61;100.00
17054;BME280;8643;48.824;11.422;2022-12-16T09:00:48;95985.91;;;-1.53;100.00
17054;BME280;8643;48.824;11.422;2022-12-16T09:03:36;95986.16;;;-1.50;100.00
17054;BME280;8643;48.824;11.422;2022-12-16T09:06:22;95994.53;;;-1.67;100.00
17054;BME280;8643;48.824;11.422;2022-12-16T09:09:09;96008.09;;;-1.42;100.00
17054;BME280;8643;48.824;11.422;2022-12-16T09:11:56;96006.44;;;-1.33;100.00
17054;BME280;8643;48.824;11.422;2022-12-16T09:14:41;96010.03;;;-1.48;100.00
17054;BME280;8643;48.824;11.422;2022-12-16T09:17:28;96010.81;;;-1.48;100.00
17054;BME280;8643;48.824;11.422;2022-12-16T09:20:14;96014.84;;;-1.45;100.00
17054;BME280;8643;48.824;11.422;2022-12-16T09:23:09;96033.38;;;-1.49;100.00
17054;BME280;8643;48.824;11.422;2022-12-16T09:25:56;96044.59;;;-1.36;100.00
17054;BME280;8643;48.824;11.422;2022-12-16T09:28:42;96054.81;;;-1.43;100.00
17054;BME280;8643;48.824;11.422;2022-12-16T09:31:28;96052.22;;;-1.59;100.00
17054;BME280;8643;48.824;11.422;2022-12-16T09:34:14;96058.44;;;-1.69;100.00
17054;BME280;8643;48.824;11.422;2022-12-16T09:37:01;96062.16;;;-1.54;100.00
17054;BME280;8643;48.824;11.422;2022-12-16T09:39:46;96067.97;;;-1.42;100.00
17054;BME280;8643;48.824;11.422;2022-12-16T09:42:46;96057.81;;;-1.50;100.00
17054;BME280;8643;48.824;11.422;2022-12-16T09:45:40;96069.59;;;-1.41;100.00
17054;BME280;8643;48.824;11.422;2022-12-16T09:48:42;96054.03;;;-1.44;100.00
17054;BME280;8643;48.824;11.422;2022-12-16T09:51:34;96060.53;;;-1.55;100.00
17054;BME280;8643;48.824;11.422;2022-12-16T09:54:26;96065.88;;;-1.45;100.00
17054;BME280;8643;48.824;11.422;2022-12-16T09:57:14;96060.41;;;-1.30;100.00
17054;BME280;8643;48.824;11.422;2022-12-16T10:00:06;96066.28;;;-1.22;100.00
17054;BME280;8643;48.824;11.422;2022-12-16T10:02:55;96064.69;;;-1.23;100.00
17054;BME280;8643;48.824;11.422;2022-12-16T10:05:47;96067.66;;;-1.25;100.00
17054;BME280;8643;48.824;11.422;2022-12-16T10:08:45;96070.69;;;-1.47;100.00
17054;BME280;8643;48.824;11.422;2022-12-16T10:11:46;96076.84;;;-1.36;100.00
17054;BME280;8643;48.824;11.422;2022-12-16T10:14:47;96074.91;;;-1.31;100.00
17054;BME280;8643;48.824;11.422;2022-12-16T10:17:43;96073.03;;;-1.30;100.00
17054;BME280;8643;48.824;11.422;2022-12-16T10:20:39;96073.75;;;-1.14;100.00
17054;BME280;8643;48.824;11.422;2022-12-16T10:23:31;96077.00;;;-1.22;100.00
17054;BME280;8643;48.824;11.422;2022-12-16T10:26:39;96080.47;;;-1.12;100.00
17054;BME280;8643;48.824;11.422;2022-12-16T10:29:34;96084.25;;;-1.18;100.00
17054;BME280;8643;48.824;11.422;2022-12-16T10:32:31;96078.84;;;-1.13;100.00
17054;BME280;8643;48.824;11.422;2022-12-16T10:35:24;96088.28;;;-1.15;100.00
17054;BME280;8643;48.824;11.422;2022-12-16T10:38:20;96093.09;;;-1.12;100.00
17054;BME280;8643;48.824;11.422;2022-12-16T10:41:08;96092.50;;;-1.04;100.00
17054;BME280;8643;48.824;11.422;2022-12-16T10:43:58;96092.53;;;-1.09;100.00
17054;BME280;8643;48.824;11.422;2022-12-16T10:46:45;96096.91;;;-1.23;100.00
17054;BME280;8643;48.824;11.422;2022-12-16T10:49:33;96097.72;;;-1.23;100.00
17054;BME280;8643;48.824;11.422;2022-12-16T10:52:22;96096.56;;;-1.12;100.00
17054;BME280;8643;48.824;11.422;2022-12-16T10:55:21;96099.22;;;-1.06;100.00
17054;BME280;8643;48.824;11.422;2022-12-16T10:58:24;96102.72;;;-1.01;100.00
17054;BME280;8643;48.824;11.422;2022-12-16T11:01:21;96103.63;;;-1.26;100.00
17054;BME280;8643;48.824;11.422;2022-12-16T11:04:33;96095.88;;;-1.33;100.00
17054;BME280;8643;48.824;11.422;2022-12-16T11:07:32;96114.69;;;-1.33;100.00
17054;BME280;8643;48.824;11.422;2022-12-16T11:10:31;96117.59;;;-1.24;100.00
17054;BME280;8643;48.824;11.422;2022-12-16T11:13:23;96111.97;;;-1.27;100.00
17054;BME280;8643;48.824;11.422;2022-12-16T11:16:16;96114.63;;;-1.22;100.00
17054;BME280;8643;48.824;11.422;2022-12-16T11:19:19;96125.88;;;-1.15;100.00
17054;BME280;8643;48.824;11.422;2022-12-16T11:22:12;96125.19;;;-1.36;100.00
17054;BME280;8643;48.824;11.422;2022-12-16T11:25:14;96128.47;;;-1.50;100.00
17054;BME280;8643;48.824;11.422;2022-12-16T11:28:05;96125.44;;;-1.33;100.00
17054;BME280;8643;48.824;11.422;2022-12-16T11:30:59;96125.31;;;-1.07;100.00
17054;BME280;8643;48.824;11.422;2022-12-16T11:33:48;96127.75;;;-1.11;100.00
17054;BME280;8643;48.824;11.422;2022-12-16T11:36:37;96129.97;;;-1.28;100.00
17054;BME280;8643;48.824;11.422;2022-12-16T11:39:27;96121.69;;;-1.37;100.00
17054;BME280;8643;48.824;11.422;2022-12-16T11:42:21;96114.97;;;-1.39;100.00
17054;BME280;8643;48.824;11.422;2022-12-16T11:45:15;96117.34;;;-1.27;100.00
17054;BME280;8643;48.824;11.422;2022-12-16T11:48:15;96120.03;;;-1.27;100.00
17054;BME280;8643;48.824;11.422;2022-12-16T11:51:02;96122.16;;;-1.24;100.00
17054;BME280;8643;48.824;11.422;2022-12-16T11:53:57;96122.22;;;-1.35;100.00
17054;BME280;8643;48.824;11.422;2022-12-16T11:56:45;96131.88;;;-1.28;100.00
17054;BME280;8643;48.824;11.422;2022-12-16T11:59:39;96132.66;;;-1.28;100.00
17054;BME280;8643;48.824;11.422;2022-12-16T12:02:33;96137.50;;;-1.25;100.00
17054;BME280;8643;48.824;11.422;2022-12-16T12:05:31;96136.69;;;-1.25;100.00
17054;BME280;8643;48.824;11.422;2022-12-16T12:08:27;96149.13;;;-1.55;100.00
17054;BME280;8643;48.824;11.422;2022-12-16T12:11:19;96142.94;;;-1.51;100.00
17054;BME280;8643;48.824;11.422;2022-12-16T12:14:18;96129.75;;;-1.37;100.00
17054;BME280;8643;48.824;11.422;2022-12-16T12:17:23;96142.59;;;-1.28;100.00
17054;BME280;8643;48.824;11.422;2022-12-16T12:20:33;96150.72;;;-1.44;100.00
17054;BME280;8643;48.824;11.422;2022-12-16T12:23:42;96157.75;;;-1.63;100.00
17054;BME280;8643;48.824;11.422;2022-12-16T12:26:33;96149.91;;;-1.44;100.00
17054;BME280;8643;48.824;11.422;2022-12-16T12:29:32;96154.22;;;-1.54;100.00
17054;BME280;8643;48.824;11.422;2022-12-16T12:32:33;96143.75;;;-1.45;100.00
17054;BME280;8643;48.824;11.422;2022-12-16T12:35:44;96153.13;;;-1.42;100.00
17054;BME280;8643;48.824;11.422;2022-12-16T12:38:47;96151.28;;;-1.52;100.00
17054;BME280;8643;48.824;11.422;2022-12-16T12:41:56;96158.25;;;-1.46;100.00
17054;BME280;8643;48.824;11.422;2022-12-16T12:44:57;96168.47;;;-1.53;100.00
17054;BME280;8643;48.824;11.422;2022-12-16T12:47:53;96162.31;;;-1.59;100.00
17054;BME280;8643;48.824;11.422;2022-12-16T12:50:52;96170.66;;;-1.66;100.00
17054;BME280;8643;48.824;11.422;2022-12-16T12:53:50;96169.03;;;-1.67;100.00
17054;BME280;8643;48.824;11.422;2022-12-16T12:56:46;96167.16;;;-1.76;100.00
17054;BME280;8643;48.824;11.422;2022-12-16T12:59:46;96170.69;;;-1.91;100.00
17054;BME280;8643;48.824;11.422;2022-12-16T13:02:48;96182.22;;;-1.86;100.00
17054;BME280;8643;48.824;11.422;2022-12-16T13:05:48;96184.91;;;-1.80;100.00
17054;BME280;8643;48.824;11.422;2022-12-16T13:08:55;96190.81;;;-1.78;100.00
17054;BME280;8643;48.824;11.422;2022-12-16T13:12:27;96197.53;;;-1.76;100.00
17054;BME280;8643;48.824;11.422;2022-12-16T13:15:33;96195.88;;;-1.56;100.00
17054;BME280;8643;48.824;11.422;2022-12-16T13:18:29;96199.91;;;-1.59;100.00
17054;BME280;8643;48.824;11.422;2022-12-16T13:21:46;96206.06;;;-1.63;100.00
17054;BME280;8643;48.824;11.422;2022-12-16T13:24:38;96214.69;;;-1.72;100.00
17054;BME280;8643;48.824;11.422;2022-12-16T13:27:27;96217.38;;;-1.72;100.00
17054;BME280;8643;48.824;11.422;2022-12-16T13:30:22;96211.19;;;-1.88;100.00
17054;BME280;8643;48.824;11.422;2022-12-16T13:33:27;96214.44;;;-1.80;100.00
17054;BME280;8643;48.824;11.422;2022-12-16T13:36:17;96221.66;;;-1.60;100.00
17054;BME280;8643;48.824;11.422;2022-12-16T13:39:23;96214.41;;;-1.55;100.00
17054;BME280;8643;48.824;11.422;2022-12-16T13:42:48;96219.19;;;-1.52;100.00
17054;BME280;8643;48.824;11.422;2022-12-16T13:45:37;96234.25;;;-1.56;100.00
17054;BME280;8643;48.824;11.422;2022-12-16T13:48:41;96242.31;;;-1.71;100.00
17054;BME280;8643;48.824;11.422;2022-12-16T13:51:58;96251.97;;;-1.65;100.00
17054;BME280;8643;48.824;11.422;2022-12-16T13:54:58;96252.81;;;-1.64;100.00
17054;BME280;8643;48.824;11.422;2022-12-16T13:57:53;96248.50;;;-1.60;100.00
17054;BME280;8643;48.824;11.422;2022-12-16T14:00:43;96253.31;;;-1.57;100.00
17054;BME280;8643;48.824;11.422;2022-12-16T14:03:43;96262.19;;;-1.67;100.00
17054;BME280;8643;48.824;11.422;2022-12-16T14:06:31;96261.41;;;-1.73;100.00
17054;BME280;8643;48.824;11.422;2022-12-16T14:09:31;96265.94;;;-1.73;100.00
17054;BME280;8643;48.824;11.422;2022-12-16T14:12:43;96270.00;;;-1.76;100.00
17054;BME280;8643;48.824;11.422;2022-12-16T14:15:40;96278.31;;;-1.82;100.00
17054;BME280;8643;48.824;11.422;2022-12-16T14:18:44;96282.06;;;-1.78;100.00
17054;BME280;8643;48.824;11.422;2022-12-16T14:21:41;96290.09;;;-1.78;100.00
17054;BME280;8643;48.824;11.422;2022-12-16T14:24:30;96298.44;;;-1.85;100.00
17054;BME280;8643;48.824;11.422;2022-12-16T14:27:19;96308.91;;;-1.83;100.00
17054;BME280;8643;48.824;11.422;2022-12-16T14:30:17;96305.41;;;-1.94;100.00